createdAt,value
2019-03-11T00:04:34.064Z,7.61
2019-03-11T00:14:38.897Z,7.89
2019-03-11T00:24:43.766Z,7.81
2019-03-11T00:34:48.630Z,7.74
2019-03-11T00:44:53.472Z,7.31
2019-03-11T00:54:58.295Z,6.59
2019-03-11T01:05:03.361Z,5.09
2019-03-11T01:15:12.941Z,4.57
2019-03-11T01:25:18.111Z,2.99
2019-03-11T01:35:22.981Z,2.57
2019-03-11T01:45:27.849Z,2.17
2019-03-11T01:55:32.715Z,1.95
2019-03-11T02:05:37.613Z,1.71
2019-03-11T02:15:42.455Z,1.78
2019-03-11T02:25:47.344Z,1.75
2019-03-11T02:35:52.205Z,1.63
2019-03-11T02:45:57.045Z,1.78
2019-03-11T02:56:01.923Z,1.85
2019-03-11T03:06:08.448Z,1.88
2019-03-11T03:16:13.306Z,1.84
2019-03-11T03:26:18.230Z,2.00
2019-03-11T03:36:23.100Z,2.03
2019-03-11T03:46:27.963Z,2.10
2019-03-11T03:56:32.849Z,2.10
2019-03-11T04:06:37.809Z,2.24
2019-03-11T04:16:42.756Z,1.88
2019-03-11T04:26:50.558Z,1.68
2019-03-11T04:36:55.448Z,1.89
2019-03-11T04:47:00.342Z,2.14
2019-03-11T04:57:05.305Z,2.21
2019-03-11T05:07:10.207Z,2.39
2019-03-11T05:17:15.152Z,2.34
2019-03-11T05:27:20.152Z,2.51
2019-03-11T05:37:25.093Z,2.23
2019-03-11T05:47:29.972Z,2.28
2019-03-11T05:57:34.856Z,2.39
2019-03-11T06:07:42.505Z,2.52
2019-03-11T06:17:46.906Z,2.56
2019-03-11T06:27:51.950Z,2.50
2019-03-11T06:37:56.875Z,2.51
2019-03-11T06:48:01.926Z,2.90
2019-03-11T06:58:06.799Z,3.45
2019-03-11T07:08:11.681Z,3.86
2019-03-11T07:18:16.595Z,3.58
2019-03-11T07:28:21.483Z,3.78
2019-03-11T07:38:26.395Z,3.69
2019-03-11T07:48:31.334Z,3.61
2019-03-11T07:58:37.401Z,3.46
2019-03-11T08:08:42.289Z,3.58
2019-03-11T08:18:47.196Z,3.39
2019-03-11T08:28:52.101Z,3.68
2019-03-11T08:38:57.011Z,4.09
2019-03-11T08:49:01.942Z,4.49
2019-03-11T08:59:06.882Z,3.84
2019-03-11T09:09:13.275Z,4.19
2019-03-11T09:19:18.155Z,4.63
2019-03-11T09:29:23.072Z,4.90
2019-03-11T09:39:27.954Z,4.38
2019-03-11T09:49:32.835Z,4.84
2019-03-11T09:59:37.804Z,4.95
2019-03-11T10:09:42.753Z,10.51
2019-03-11T10:19:47.693Z,5.74
2019-03-11T10:29:52.594Z,4.45
2019-03-11T10:39:57.541Z,5.51
2019-03-11T10:50:02.531Z,5.37
2019-03-11T11:00:10.368Z,3.86
2019-03-11T11:10:16.445Z,6.53
2019-03-11T11:20:22.622Z,5.68
2019-03-11T11:30:29.462Z,4.65
2019-03-11T11:40:34.329Z,5.76
2019-03-11T11:50:39.252Z,5.47
2019-03-11T12:00:51.702Z,4.34
2019-03-11T12:10:56.611Z,4.34
2019-03-11T12:21:01.496Z,4.00
2019-03-11T12:31:06.516Z,4.63
2019-03-11T12:41:11.499Z,6.39
2019-03-11T12:51:16.414Z,5.93
2019-03-11T13:01:21.271Z,6.57
2019-03-11T13:11:26.243Z,7.47
2019-03-11T13:21:31.221Z,6.49
2019-03-11T13:31:36.138Z,7.52
2019-03-11T13:41:41.002Z,5.85
2019-03-11T13:51:45.855Z,4.99
2019-03-11T14:01:50.751Z,5.55
2019-03-11T14:11:55.622Z,4.54
2019-03-11T14:22:00.521Z,3.89
2019-03-11T14:32:05.391Z,3.89
2019-03-11T14:42:10.288Z,4.58
2019-03-11T14:52:15.143Z,5.22
2019-03-11T15:02:20.041Z,4.85
2019-03-11T15:12:24.913Z,4.28
2019-03-11T15:22:29.777Z,3.93
2019-03-11T15:32:34.776Z,4.22
2019-03-11T15:42:39.637Z,3.15
2019-03-11T15:52:44.526Z,3.08
2019-03-11T16:02:53.467Z,2.68
2019-03-11T16:12:59.460Z,2.85
2019-03-11T16:23:05.347Z,2.71
2019-03-11T16:33:10.430Z,2.62
2019-03-11T16:43:15.325Z,2.51
2019-03-11T16:53:20.297Z,2.46
2019-03-11T17:03:25.286Z,2.53
2019-03-11T17:13:30.194Z,2.42
2019-03-11T17:23:35.495Z,2.07
2019-03-11T17:33:40.534Z,1.98
2019-03-11T17:43:45.752Z,2.03
2019-03-11T17:53:50.634Z,1.68
2019-03-11T18:03:55.520Z,1.53
2019-03-11T18:14:00.463Z,1.46
2019-03-11T18:24:06.536Z,1.61
2019-03-11T18:34:11.587Z,1.71
2019-03-11T18:44:16.560Z,1.69
2019-03-11T18:54:21.720Z,1.65
2019-03-11T19:04:26.753Z,1.73
2019-03-11T19:14:31.754Z,1.66
2019-03-11T19:24:36.741Z,1.63
2019-03-11T19:34:41.934Z,1.84
2019-03-11T19:44:47.589Z,1.70
2019-03-11T19:54:52.755Z,1.78
2019-03-11T20:04:57.791Z,1.97
2019-03-11T20:15:02.961Z,1.89
2019-03-11T20:25:11.237Z,2.06
2019-03-11T20:35:17.571Z,1.94
2019-03-11T20:45:23.152Z,1.96
2019-03-11T20:55:28.214Z,2.14
2019-03-11T21:05:41.735Z,2.11
2019-03-11T21:15:46.812Z,1.77
2019-03-11T21:25:51.831Z,2.10
2019-03-11T21:35:56.953Z,1.98
2019-03-11T21:46:01.960Z,2.04
2019-03-11T21:56:06.970Z,1.98
2019-03-11T22:06:11.991Z,1.72
2019-03-11T22:16:16.949Z,1.70
2019-03-11T22:26:22.835Z,1.90
2019-03-11T22:36:27.716Z,2.17
2019-03-11T22:46:33.600Z,2.20
2019-03-11T22:56:38.573Z,2.06
2019-03-11T23:06:43.449Z,2.11
2019-03-11T23:16:48.343Z,2.04
2019-03-11T23:26:53.239Z,2.05
2019-03-11T23:36:58.297Z,2.25
2019-03-11T23:47:03.184Z,2.13
2019-03-11T23:57:08.061Z,2.20
